Time,TemperatureF,DewpointF,PressureIn,WindDirection,WindDirectionDegrees,WindSpeedMPH,WindSpeedGustMPH,Humidity,HourlyPrecipIn,Conditions,Clouds,dailyrainin,SoftwareType,DateUTC
2013-01-30 00:12:00,59.0,59.0,-100.00,SE,134,0.0,-999.0,100,0.00,,,-99.99,,2013-01-30 05:12:00,
2013-01-30 00:22:00,59.0,59.0,-100.00,SE,134,0.0,-999.0,100,0.00,,,-99.99,,2013-01-30 05:22:00,
2013-01-30 00:32:00,59.0,59.0,-100.00,SE,134,0.0,-999.0,100,0.00,,,-99.99,,2013-01-30 05:32:00,
2013-01-30 00:43:00,59.0,59.0,-100.00,SE,134,0.0,-999.0,100,0.00,,,-99.99,,2013-01-30 05:43:00,
2013-01-30 01:22:00,61.0,61.0,-100.00,SSE,154,2.0,-999.0,100,0.00,,,-99.99,,2013-01-30 06:22:00,
2013-01-30 01:32:00,61.0,61.0,-100.00,SSE,154,2.0,-999.0,100,0.00,,,-99.99,,2013-01-30 06:32:00,
2013-01-30 01:42:00,61.0,61.0,-100.00,SSE,154,2.0,-999.0,100,0.00,,,-99.99,,2013-01-30 06:42:00,
2013-01-30 02:22:00,62.0,62.0,-100.00,SSE,151,1.0,-999.0,99,0.00,,,-99.99,,2013-01-30 07:22:00,
2013-01-30 02:32:00,62.0,62.0,-100.00,SSE,151,1.0,-999.0,99,0.00,,,-99.99,,2013-01-30 07:32:00,
2013-01-30 02:42:00,62.0,62.0,-100.00,SSE,151,1.0,-999.0,99,0.00,,,-99.99,,2013-01-30 07:42:00,
2013-01-30 03:22:00,65.0,63.0,-100.00,SSE,158,2.0,-999.0,95,0.00,,,-99.99,,2013-01-30 08:22:00,
2013-01-30 03:32:00,65.0,63.0,-100.00,SSE,158,2.0,-999.0,95,0.00,,,-99.99,,2013-01-30 08:32:00,
2013-01-30 03:42:00,65.0,63.0,-100.00,SSE,158,2.0,-999.0,95,0.00,,,-99.99,,2013-01-30 08:42:00,
2013-01-30 04:22:00,63.0,62.0,-100.00,SSE,154,2.0,-999.0,97,0.00,,,-99.99,,2013-01-30 09:22:00,
2013-01-30 04:32:00,63.0,62.0,-100.00,SSE,154,2.0,-999.0,97,0.00,,,-99.99,,2013-01-30 09:32:00,
2013-01-30 04:42:00,63.0,62.0,-100.00,SSE,154,2.0,-999.0,97,0.00,,,-99.99,,2013-01-30 09:42:00,
2013-01-30 05:22:00,61.0,61.0,-100.00,SSE,151,1.0,-999.0,100,0.00,,,-99.99,,2013-01-30 10:22:00,
2013-01-30 05:32:00,61.0,61.0,-100.00,SSE,151,1.0,-999.0,100,0.00,,,-99.99,,2013-01-30 10:32:00,
2013-01-30 05:42:00,61.0,61.0,-100.00,SSE,151,1.0,-999.0,100,0.00,,,-99.99,,2013-01-30 10:42:00,
2013-01-30 06:22:00,62.0,62.0,-100.00,SSE,156,1.0,-999.0,100,0.00,,,-99.99,,2013-01-30 11:22:00,
2013-01-30 06:33:00,62.0,62.0,-100.00,SSE,156,1.0,-999.0,100,0.00,,,-99.99,,2013-01-30 11:33:00,
2013-01-30 06:42:00,62.0,62.0,-100.00,SSE,156,1.0,-999.0,100,0.00,,,-99.99,,2013-01-30 11:42:00,
2013-01-30 07:22:00,64.0,63.0,-100.00,SSE,157,1.0,-999.0,98,0.00,,,-99.99,,2013-01-30 12:22:00,
2013-01-30 07:33:00,64.0,63.0,-100.00,SSE,157,1.0,-999.0,98,0.00,,,-99.99,,2013-01-30 12:33:00,
2013-01-30 07:43:00,64.0,63.0,-100.00,SSE,157,1.0,-999.0,98,0.00,,,-99.99,,2013-01-30 12:43:00,
2013-01-30 08:23:00,64.0,63.0,-100.00,SSE,162,3.0,-999.0,97,0.00,,,-99.99,,2013-01-30 13:23:00,
2013-01-30 08:33:00,64.0,63.0,-100.00,SSE,162,3.0,-999.0,97,0.00,,,-99.99,,2013-01-30 13:33:00,
2013-01-30 08:43:00,64.0,63.0,-100.00,SSE,162,3.0,-999.0,97,0.00,,,-99.99,,2013-01-30 13:43:00,
2013-01-30 09:23:00,63.0,62.0,-100.00,SSE,157,2.0,-999.0,98,0.00,,,-99.99,,2013-01-30 14:23:00,
2013-01-30 09:33:00,63.0,62.0,-100.00,SSE,157,2.0,-999.0,98,0.00,,,-99.99,,2013-01-30 14:33:00,
2013-01-30 09:42:00,63.0,62.0,-100.00,SSE,157,2.0,-999.0,98,0.00,,,-99.99,,2013-01-30 14:42:00,
2013-01-30 10:23:00,68.0,64.0,-100.00,SSE,166,3.0,-999.0,89,0.00,,,-99.99,,2013-01-30 15:23:00,
2013-01-30 10:33:00,68.0,64.0,-100.00,SSE,166,3.0,-999.0,89,0.00,,,-99.99,,2013-01-30 15:33:00,
2013-01-30 10:43:00,68.0,64.0,-100.00,SSE,166,3.0,-999.0,89,0.00,,,-99.99,,2013-01-30 15:43:00,
2013-01-30 11:23:00,69.0,65.0,-100.00,South,180,4.0,-999.0,85,0.00,,,-99.99,,2013-01-30 16:23:00,
2013-01-30 11:32:00,69.0,65.0,-100.00,South,180,4.0,-999.0,85,0.00,,,-99.99,,2013-01-30 16:32:00,
2013-01-30 11:42:00,69.0,65.0,-100.00,South,180,4.0,-999.0,85,0.00,,,-99.99,,2013-01-30 16:42:00,
2013-01-30 12:23:00,70.0,65.0,-100.00,South,176,5.0,-999.0,82,0.00,,,-99.99,,2013-01-30 17:23:00,
2013-01-30 12:33:00,70.0,65.0,-100.00,South,176,5.0,-999.0,82,0.00,,,-99.99,,2013-01-30 17:33:00,
2013-01-30 12:43:00,70.0,65.0,-100.00,South,176,5.0,-999.0,82,0.00,,,-99.99,,2013-01-30 17:43:00,
2013-01-30 13:23:00,71.0,65.0,-100.00,South,180,6.0,-999.0,79,0.00,,,-99.99,,2013-01-30 18:23:00,
2013-01-30 13:33:00,71.0,65.0,-100.00,South,180,6.0,-999.0,79,0.00,,,-99.99,,2013-01-30 18:33:00,
2013-01-30 13:43:00,71.0,65.0,-100.00,South,180,6.0,-999.0,79,0.00,,,-99.99,,2013-01-30 18:43:00,
2013-01-30 14:22:00,71.0,65.0,-100.00,South,170,6.0,-999.0,82,0.00,,,-99.99,,2013-01-30 19:22:00,
2013-01-30 14:33:00,71.0,65.0,-100.00,South,170,6.0,-999.0,82,0.00,,,-99.99,,2013-01-30 19:33:00,
2013-01-30 14:43:00,71.0,65.0,-100.00,South,170,6.0,-999.0,82,0.00,,,-99.99,,2013-01-30 19:43:00,
2013-01-30 15:22:00,70.0,65.0,-100.00,South,169,6.0,-999.0,84,0.00,,,-99.99,,2013-01-30 20:22:00,
2013-01-30 15:33:00,70.0,65.0,-100.00,South,169,6.0,-999.0,84,0.00,,,-99.99,,2013-01-30 20:33:00,
2013-01-30 15:42:00,70.0,65.0,-100.00,South,169,6.0,-999.0,84,0.00,,,-99.99,,2013-01-30 20:42:00,
2013-01-30 16:23:00,70.0,65.0,-100.00,South,172,8.0,-999.0,85,0.00,,,-99.99,,2013-01-30 21:23:00,
2013-01-30 16:32:00,70.0,65.0,-100.00,South,172,8.0,-999.0,85,0.00,,,-99.99,,2013-01-30 21:32:00,
2013-01-30 16:42:00,70.0,65.0,-100.00,South,172,8.0,-999.0,85,0.00,,,-99.99,,2013-01-30 21:42:00,
2013-01-30 17:22:00,68.0,64.0,-100.00,SSE,167,7.0,-999.0,85,0.00,,,-99.99,,2013-01-30 22:22:00,
2013-01-30 17:32:00,68.0,64.0,-100.00,SSE,167,7.0,-999.0,85,0.00,,,-99.99,,2013-01-30 22:32:00,
2013-01-30 17:42:00,68.0,64.0,-100.00,SSE,167,7.0,-999.0,85,0.00,,,-99.99,,2013-01-30 22:42:00,
2013-01-30 18:22:00,67.0,63.0,-100.00,South,171,7.0,-999.0,88,0.00,,,-99.99,,2013-01-30 23:22:00,
2013-01-30 18:33:00,67.0,63.0,-100.00,South,171,7.0,-999.0,88,0.00,,,-99.99,,2013-01-30 23:33:00,
2013-01-30 18:42:00,67.0,63.0,-100.00,South,171,7.0,-999.0,88,0.00,,,-99.99,,2013-01-30 23:42:00,
2013-01-30 19:22:00,66.0,63.0,-100.00,SSE,168,7.0,-999.0,88,0.00,,,-99.99,,2013-01-31 00:22:00,
2013-01-30 19:32:00,66.0,63.0,-100.00,SSE,168,7.0,-999.0,88,0.00,,,-99.99,,2013-01-31 00:32:00,
2013-01-30 19:42:00,66.0,63.0,-100.00,SSE,168,7.0,-999.0,88,0.00,,,-99.99,,2013-01-31 00:42:00,
2013-01-30 20:22:00,66.0,63.0,-100.00,SSE,164,6.0,-999.0,89,0.00,,,-99.99,,2013-01-31 01:22:00,
2013-01-30 20:32:00,66.0,63.0,-100.00,SSE,164,6.0,-999.0,89,0.00,,,-99.99,,2013-01-31 01:32:00,
2013-01-30 20:42:00,66.0,63.0,-100.00,SSE,164,6.0,-999.0,89,0.00,,,-99.99,,2013-01-31 01:42:00,
2013-01-30 21:22:00,67.0,63.0,-100.00,South,170,6.0,-999.0,87,0.00,,,-99.99,,2013-01-31 02:22:00,
2013-01-30 21:32:00,67.0,63.0,-100.00,South,170,6.0,-999.0,87,0.00,,,-99.99,,2013-01-31 02:32:00,
2013-01-30 21:42:00,67.0,63.0,-100.00,South,170,6.0,-999.0,87,0.00,,,-99.99,,2013-01-31 02:42:00,
2013-01-30 22:22:00,67.0,63.0,-100.00,South,180,7.0,-999.0,86,0.00,,,-99.99,,2013-01-31 03:22:00,
2013-01-30 22:32:00,67.0,63.0,-100.00,South,180,7.0,-999.0,86,0.00,,,-99.99,,2013-01-31 03:32:00,
2013-01-30 22:42:00,67.0,63.0,-100.00,South,180,7.0,-999.0,86,0.00,,,-99.99,,2013-01-31 03:42:00,
2013-01-30 23:22:00,66.0,63.0,-100.00,South,180,5.0,-999.0,89,0.00,,,-99.99,,2013-01-31 04:22:00,
2013-01-30 23:32:00,66.0,63.0,-100.00,South,180,5.0,-999.0,89,0.00,,,-99.99,,2013-01-31 04:32:00,
2013-01-30 23:42:00,66.0,63.0,-100.00,South,180,5.0,-999.0,89,0.00,,,-99.99,,2013-01-31 04:42:00,